Time;durP1;ratioP1;P1;durP2;ratioP2;P2;SDS_P1;SDS_P2;PMS_P1;PMS_P2;Temp;Humidity;BMP_temperature;BMP_pressure;BME280_temperature;BME280_humidity;BME280_pressure;Samples;Min_cycle;Max_cycle;Signal;HPM_P1;HPM_P2
2021/05/17 00:02:15;;;;;;;9.40;5.75;;;10.10;99.90;;;;;;5034082;28;20812;-75
2021/05/17 00:04:41;;;;;;;8.30;5.88;;;10.20;99.90;;;;;;5032456;28;20395;-75
2021/05/17 00:07:09;;;;;;;9.77;6.78;;;10.30;99.90;;;;;;5040468;28;20546;-75
2021/05/17 00:09:35;;;;;;;7.95;6.50;;;10.30;99.90;;;;;;5053945;28;20396;-76
2021/05/17 00:12:01;;;;;;;9.80;7.10;;;10.30;99.90;;;;;;5053869;28;20462;-74
2021/05/17 00:14:28;;;;;;;8.23;5.43;;;10.40;99.90;;;;;;5053714;28;20434;-74
2021/05/17 00:16:54;;;;;;;8.50;6.32;;;10.50;99.90;;;;;;5053547;28;20390;-75
2021/05/17 00:19:20;;;;;;;11.68;6.10;;;10.50;99.90;;;;;;5052549;28;20524;-75
2021/05/17 00:21:47;;;;;;;7.90;6.07;;;10.50;99.70;;;;;;5044224;28;20394;-74
2021/05/17 00:24:13;;;;;;;11.60;6.30;;;10.50;99.80;;;;;;5033579;28;20469;-75
2021/05/17 00:26:40;;;;;;;7.90;6.03;;;10.50;99.90;;;;;;5033427;28;20391;-74
2021/05/17 00:29:09;;;;;;;9.20;5.50;;;10.60;98.00;;;;;;5046072;28;20981;-75
2021/05/17 00:31:38;;;;;;;10.70;5.95;;;10.70;97.30;;;;;;5052148;28;20405;-75
2021/05/17 00:34:05;;;;;;;9.18;5.85;;;10.70;97.70;;;;;;5038110;28;20429;-77
2021/05/17 00:36:32;;;;;;;8.82;5.80;;;10.70;97.80;;;;;;5033695;28;20863;-75
2021/05/17 00:38:59;;;;;;;9.30;6.28;;;10.60;98.10;;;;;;5033537;28;20394;-75
2021/05/17 00:41:26;;;;;;;7.50;6.03;;;10.60;98.30;;;;;;5033527;28;20419;-75
2021/05/17 00:43:53;;;;;;;8.85;5.90;;;10.70;98.90;;;;;;5033343;28;20402;-75
2021/05/17 00:46:20;;;;;;;10.35;6.03;;;10.70;98.50;;;;;;5033437;28;20383;-75
2021/05/17 00:48:46;;;;;;;7.97;5.90;;;10.70;98.60;;;;;;5031928;28;20402;-76
2021/05/17 00:51:12;;;;;;;7.68;5.88;;;10.60;98.20;;;;;;5032829;28;20407;-76
2021/05/17 00:53:38;;;;;;;8.67;5.70;;;10.70;98.20;;;;;;5033004;28;20391;-76
2021/05/17 00:56:05;;;;;;;8.15;5.50;;;10.70;98.10;;;;;;5033061;28;20470;-76
2021/05/17 00:58:32;;;;;;;7.05;5.88;;;10.80;97.50;;;;;;5032940;28;20387;-77
2021/05/17 01:00:58;;;;;;;6.05;5.20;;;10.80;97.50;;;;;;5033228;28;20419;-76
2021/05/17 01:03:24;;;;;;;6.20;5.20;;;10.80;96.50;;;;;;5033611;28;20407;-75
2021/05/17 01:05:51;;;;;;;10.60;5.80;;;10.80;96.60;;;;;;5032901;28;20394;-76
2021/05/17 01:08:32;;;;;;;7.68;5.50;;;10.70;97.60;;;;;;5049068;28;20397;-76
2021/05/17 01:11:03;;;;;;;8.18;5.40;;;10.80;97.10;;;;;;5051541;28;20448;-76
2021/05/17 01:13:30;;;;;;;6.05;5.22;;;10.80;97.20;;;;;;5051591;28;20885;-77
2021/05/17 01:15:58;;;;;;;9.70;5.73;;;10.80;96.30;;;;;;5052763;28;20400;-76
2021/05/17 01:18:24;;;;;;;9.35;5.38;;;10.80;97.10;;;;;;5052677;28;20404;-76
2021/05/17 01:20:52;;;;;;;5.70;5.03;;;10.80;97.30;;;;;;5052622;28;20438;-76
2021/05/17 01:23:30;;;;;;;7.90;5.00;;;10.80;97.60;;;;;;5051217;28;20412;-76
2021/05/17 01:25:59;;;;;;;6.82;5.03;;;10.90;97.00;;;;;;5052823;28;20377;-76
2021/05/17 01:28:30;;;;;;;9.32;4.75;;;10.80;97.60;;;;;;5052659;28;20827;-77
2021/05/17 01:31:02;;;;;;;6.40;4.35;;;10.90;97.60;;;;;;5053321;28;20402;-76
2021/05/17 01:33:32;;;;;;;8.38;4.47;;;10.90;98.10;;;;;;5052905;28;20390;-76
2021/05/17 01:36:00;;;;;;;8.93;4.60;;;11.00;96.90;;;;;;5051088;28;20754;-76
2021/05/17 01:38:26;;;;;;;6.40;3.88;;;10.90;97.30;;;;;;5052469;28;20381;-76
2021/05/17 01:40:53;;;;;;;6.72;3.85;;;11.20;95.80;;;;;;5050975;28;20389;-76
2021/05/17 01:43:21;;;;;;;6.47;4.47;;;11.10;95.50;;;;;;5050835;28;20698;-76
2021/05/17 01:45:47;;;;;;;7.63;4.43;;;11.20;94.30;;;;;;5052111;28;20885;-76
2021/05/17 01:48:13;;;;;;;8.63;4.20;;;11.20;94.90;;;;;;5052140;28;20389;-77
2021/05/17 01:50:39;;;;;;;4.82;3.38;;;11.20;94.40;;;;;;5051836;28;20377;-77
2021/05/17 01:53:06;;;;;;;6.95;3.83;;;11.10;94.90;;;;;;5051962;28;20813;-77
2021/05/17 01:55:32;;;;;;;5.72;3.03;;;11.20;94.70;;;;;;5054399;28;20485;-76
2021/05/17 01:58:12;;;;;;;6.78;3.70;;;11.20;96.30;;;;;;5055152;28;20389;-76
2021/05/17 02:00:42;;;;;;;4.65;3.20;;;11.10;96.20;;;;;;5052776;28;20773;-76
2021/05/17 02:03:08;;;;;;;5.57;3.83;;;11.10;96.60;;;;;;5051954;28;20932;-76
2021/05/17 02:05:35;;;;;;;4.10;3.40;;;11.10;97.00;;;;;;5051883;28;20397;-76
2021/05/17 02:08:03;;;;;;;5.68;3.50;;;11.10;98.00;;;;;;5037636;28;20391;-76
2021/05/17 02:10:30;;;;;;;8.10;4.00;;;11.20;99.20;;;;;;5031911;28;20868;-76
2021/05/17 02:12:57;;;;;;;5.38;4.18;;;11.20;96.50;;;;;;5032431;28;20509;-77
2021/05/17 02:15:24;;;;;;;7.75;4.38;;;11.20;97.20;;;;;;5032297;28;20795;-76
2021/05/17 02:18:01;;;;;;;6.53;3.80;;;11.10;97.10;;;;;;5031751;28;20393;-76
2021/05/17 02:20:31;;;;;;;5.55;4.38;;;11.10;97.90;;;;;;5031623;28;20411;-76
2021/05/17 02:22:58;;;;;;;6.55;4.07;;;11.10;97.60;;;;;;5030202;28;20387;-76
2021/05/17 02:25:23;;;;;;;7.40;4.30;;;11.00;97.70;;;;;;5031719;28;20387;-76
2021/05/17 02:27:49;;;;;;;7.53;3.70;;;11.00;97.30;;;;;;5034216;28;20960;-76
2021/05/17 02:30:16;;;;;;;6.55;3.78;;;11.10;96.60;;;;;;5053076;28;20888;-77
2021/05/17 02:32:42;;;;;;;6.10;3.60;;;11.00;96.90;;;;;;5051646;28;20416;-77
2021/05/17 02:35:08;;;;;;;4.97;3.65;;;11.00;99.20;;;;;;5050825;28;20386;-75
2021/05/17 02:37:35;;;;;;;5.35;3.35;;;11.00;98.50;;;;;;5052126;28;20465;-77
2021/05/17 02:40:02;;;;;;;5.18;3.97;;;11.00;99.20;;;;;;5051477;28;20388;-76
2021/05/17 02:42:28;;;;;;;6.10;4.20;;;11.00;98.90;;;;;;5051129;28;20482;-76
2021/05/17 02:44:56;;;;;;;7.35;3.80;;;11.00;99.90;;;;;;5050871;28;20385;-76
2021/05/17 02:47:22;;;;;;;4.40;3.42;;;11.00;99.50;;;;;;5051114;28;20413;-76
2021/05/17 02:49:51;;;;;;;5.40;3.75;;;11.00;97.90;;;;;;5051502;28;20446;-77
2021/05/17 02:52:17;;;;;;;4.47;3.60;;;11.00;98.50;;;;;;5051384;28;20428;-76
2021/05/17 02:55:15;;;;;;;5.25;3.53;;;11.10;98.70;;;;;;5051188;28;20377;-74
2021/05/17 02:57:49;;;;;;;6.07;3.80;;;11.10;98.70;;;;;;5028425;28;20515;-75
2021/05/17 03:00:17;;;;;;;4.97;4.15;;;11.10;99.00;;;;;;5050984;28;20386;-74
2021/05/17 03:02:56;;;;;;;6.18;4.03;;;11.00;99.00;;;;;;5050589;28;20761;-74
2021/05/17 03:05:22;;;;;;;7.85;3.42;;;11.00;99.50;;;;;;5049568;28;20389;-74
2021/05/17 03:07:55;;;;;;;4.07;3.40;;;11.00;99.90;;;;;;5038284;28;20395;-76
2021/05/17 03:10:23;;;;;;;6.97;3.67;;;11.00;99.90;;;;;;5030920;28;20399;-77
2021/05/17 03:12:50;;;;;;;6.80;4.20;;;11.00;99.90;;;;;;5029354;28;20412;-74
2021/05/17 03:15:16;;;;;;;5.68;3.08;;;10.90;99.90;;;;;;5030760;28;20752;-75
2021/05/17 03:17:42;;;;;;;7.20;3.60;;;11.00;99.90;;;;;;5029773;28;20888;-75
2021/05/17 03:20:08;;;;;;;6.30;3.60;;;12.30;99.90;;;;;;5030929;28;20413;-75
2021/05/17 03:22:35;;;;;;;7.15;4.10;;;11.00;99.90;;;;;;5030560;28;20411;-74
2021/05/17 03:25:04;;;;;;;7.35;3.90;;;10.90;99.90;;;;;;5030503;28;20410;-74
2021/05/17 03:27:30;;;;;;;7.30;3.80;;;11.00;99.90;;;;;;5059415;22;20419;-82
2021/05/17 03:29:56;;;;;;;6.80;3.63;;;11.00;99.90;;;;;;5076576;28;20740;-83
2021/05/17 03:32:24;;;;;;;13.57;3.67;;;10.90;99.90;;;;;;5083950;28;20414;-80
2021/05/17 03:34:51;;;;;;;4.60;3.60;;;11.00;99.90;;;;;;5086386;28;20399;-84
2021/05/17 03:37:16;;;;;;;8.82;4.70;;;12.90;99.90;;;;;;5071774;28;20413;-82
2021/05/17 03:39:47;;;;;;;8.50;4.30;;;11.00;99.90;;;;;;5069502;28;20394;-79
2021/05/17 03:42:13;;;;;;;7.90;3.97;;;11.00;99.90;;;;;;5069965;28;20387;-80
2021/05/17 03:44:38;;;;;;;9.43;4.20;;;11.00;99.90;;;;;;5057824;28;20382;-82
2021/05/17 03:47:04;;;;;;;6.93;4.00;;;11.00;99.90;;;;;;5054974;28;20484;-84
2021/05/17 03:49:30;;;;;;;7.80;4.20;;;11.30;99.90;;;;;;5056365;28;20828;-84
2021/05/17 03:51:56;;;;;;;5.50;3.70;;;11.10;99.90;;;;;;5061110;28;20463;-85
2021/05/17 03:54:21;;;;;;;9.13;4.40;;;11.10;99.90;;;;;;5058784;28;20393;-85
2021/05/17 03:56:47;;;;;;;7.90;3.67;;;11.10;99.90;;;;;;5054615;28;20385;-84
2021/05/17 03:59:15;;;;;;;5.90;3.87;;;11.20;99.90;;;;;;5056849;28;20369;-82
2021/05/17 04:01:41;;;;;;;6.80;3.50;;;11.10;99.90;;;;;;5056213;28;20420;-82
2021/05/17 04:04:08;;;;;;;7.90;3.80;;;11.20;99.90;;;;;;5062046;28;20389;-81
2021/05/17 04:14:36;;;;;;;5.13;3.57;;;11.20;99.90;;;;;;5068873;28;20427;-79
2021/05/17 04:17:02;;;;;;;5.82;3.60;;;11.20;99.90;;;;;;5074938;28;20398;-79
2021/05/17 04:19:28;;;;;;;6.50;3.47;;;11.30;99.30;;;;;;5074857;28;20407;-78
2021/05/17 04:21:54;;;;;;;5.63;4.03;;;11.30;98.80;;;;;;5060761;28;20412;-84
2021/05/17 04:24:20;;;;;;;7.43;3.30;;;11.40;98.50;;;;;;5048811;28;20860;-82
2021/05/17 04:26:46;;;;;;;7.00;3.67;;;11.30;98.20;;;;;;5050079;28;20464;-81
2021/05/17 04:29:11;;;;;;;7.05;4.30;;;11.60;97.70;;;;;;5060569;28;20408;-81
2021/05/17 04:31:37;;;;;;;6.65;3.80;;;11.60;96.10;;;;;;5059829;28;20406;-83
2021/05/17 04:34:03;;;;;;;4.83;3.70;;;11.70;95.60;;;;;;5059832;28;20404;-81
2021/05/17 04:36:31;;;;;;;6.85;3.58;;;11.70;94.90;;;;;;5065986;28;20390;-85
2021/05/17 04:38:58;;;;;;;4.90;3.40;;;11.70;94.10;;;;;;5073338;28;20369;-82
2021/05/17 04:41:23;;;;;;;6.03;3.10;;;11.80;92.50;;;;;;5078286;28;20481;-79
2021/05/17 04:43:49;;;;;;;3.93;2.50;;;11.80;89.70;;;;;;5077085;28;20453;-81
2021/05/17 04:46:15;;;;;;;6.30;3.00;;;11.90;87.60;;;;;;5073726;28;20409;-80
2021/05/17 04:48:49;;;;;;;10.37;3.10;;;12.00;86.10;;;;;;5056285;28;20395;-79
2021/05/17 04:51:15;;;;;;;5.00;3.05;;;12.00;88.10;;;;;;5050542;28;20931;-80
2021/05/17 04:53:41;;;;;;;5.65;2.97;;;12.00;88.90;;;;;;5064988;28;20386;-78
2021/05/17 04:56:07;;;;;;;3.55;3.25;;;12.00;89.20;;;;;;5070235;28;20397;-82
2021/05/17 04:58:32;;;;;;;4.97;3.17;;;12.10;87.60;;;;;;5071263;28;20417;-81
2021/05/17 05:00:58;;;;;;;7.68;3.40;;;12.20;86.90;;;;;;5069557;28;20389;-81
2021/05/17 05:03:24;;;;;;;3.10;2.80;;;12.30;85.90;;;;;;5071697;28;20419;-80
2021/05/17 05:05:49;;;;;;;9.60;3.37;;;12.40;82.60;;;;;;5063893;28;20730;-83
2021/05/17 05:08:15;;;;;;;3.60;2.90;;;12.50;81.90;;;;;;5059175;28;20888;-82
2021/05/17 05:10:40;;;;;;;6.60;3.40;;;12.50;81.40;;;;;;5055957;28;20422;-82
2021/05/17 05:13:06;;;;;;;4.00;2.57;;;12.50;80.20;;;;;;5044931;28;20410;-83
2021/05/17 05:15:32;;;;;;;5.00;2.97;;;12.50;80.30;;;;;;5043812;28;20423;-84
2021/05/17 05:17:58;;;;;;;5.60;2.63;;;12.40;80.60;;;;;;5042025;28;20478;-82
2021/05/17 05:20:23;;;;;;;9.37;3.20;;;12.20;79.70;;;;;;5045232;28;20408;-79
2021/05/17 05:22:49;;;;;;;8.87;3.47;;;12.40;79.60;;;;;;5063016;28;20404;-80
2021/05/17 05:25:16;;;;;;;6.27;3.00;;;12.40;79.70;;;;;;5053677;28;20429;-82
2021/05/17 05:27:46;;;;;;;9.60;3.33;;;12.40;79.70;;;;;;5045719;28;20422;-82
2021/05/17 05:32:52;;;;;;;11.45;3.50;;;12.50;77.20;;;;;;5062726;28;20408;-82
2021/05/17 05:35:17;;;;;;;7.07;2.92;;;12.50;77.70;;;;;;5061468;28;20480;-81
2021/05/17 05:37:43;;;;;;;6.28;2.60;;;12.60;77.10;;;;;;5063182;28;20389;-81
2021/05/17 05:40:09;;;;;;;5.03;2.95;;;12.70;76.00;;;;;;5046916;28;20410;-82
2021/05/17 05:42:34;;;;;;;7.43;2.60;;;12.70;76.20;;;;;;5050767;28;20421;-81
2021/05/17 05:45:04;;;;;;;5.20;2.70;;;13.10;75.90;;;;;;5068519;28;20838;-82
2021/05/17 05:47:29;;;;;;;7.55;2.75;;;12.80;75.30;;;;;;5070407;28;20377;-80
2021/05/17 05:49:55;;;;;;;6.13;3.15;;;13.00;72.80;;;;;;5070773;28;20389;-83
2021/05/17 05:52:21;;;;;;;8.20;3.30;;;13.00;72.90;;;;;;5060848;28;20399;-79
2021/05/17 05:54:49;;;;;;;10.43;3.88;;;13.30;72.90;;;;;;5065432;28;20385;-76
2021/05/17 05:57:15;;;;;;;6.00;3.10;;;13.30;71.00;;;;;;5054364;28;20390;-76
2021/05/17 05:59:41;;;;;;;2.70;2.50;;;13.60;68.50;;;;;;5056242;28;20432;-76
2021/05/17 06:02:07;;;;;;;7.13;3.67;;;13.60;64.40;;;;;;5041621;28;20401;-77
2021/05/17 06:04:32;;;;;;;7.32;3.13;;;13.80;64.20;;;;;;5055158;28;20692;-76
2021/05/17 06:06:59;;;;;;;12.40;3.60;;;13.90;60.90;;;;;;5053558;28;20476;-77
2021/05/17 06:09:24;;;;;;;5.85;3.00;;;14.10;60.00;;;;;;5052648;28;20893;-76
2021/05/17 06:11:50;;;;;;;8.80;2.70;;;14.10;58.50;;;;;;5054599;28;20496;-75
2021/05/17 06:14:16;;;;;;;5.17;3.10;;;13.90;59.70;;;;;;5040460;28;20426;-77
2021/05/17 06:16:42;;;;;;;7.20;3.30;;;13.80;61.50;;;;;;5048346;28;20405;-76
2021/05/17 06:19:08;;;;;;;5.17;2.60;;;14.00;59.80;;;;;;5050557;28;20435;-78
2021/05/17 06:21:33;;;;;;;5.28;3.00;;;13.80;60.50;;;;;;5053820;28;20392;-74
2021/05/17 06:23:59;;;;;;;7.13;2.60;;;13.70;60.10;;;;;;5049181;28;20431;-76
2021/05/17 06:26:27;;;;;;;9.43;3.15;;;13.70;61.90;;;;;;5034415;28;20391;-74
2021/05/17 06:28:54;;;;;;;6.93;2.75;;;13.80;61.70;;;;;;5034978;28;20430;-76
2021/05/17 06:31:21;;;;;;;5.32;2.70;;;14.00;60.90;;;;;;5051280;28;20413;-75
2021/05/17 06:33:47;;;;;;;6.10;2.90;;;14.10;58.40;;;;;;5053916;28;20386;-76
2021/05/17 06:36:14;;;;;;;5.53;2.50;;;14.00;59.20;;;;;;5053593;28;20408;-76
2021/05/17 06:38:40;;;;;;;5.43;2.90;;;14.00;57.90;;;;;;5053703;28;20448;-76
2021/05/17 06:41:10;;;;;;;6.75;2.90;;;14.00;58.80;;;;;;5056639;28;20377;-77
2021/05/17 06:43:37;;;;;;;9.52;3.00;;;14.20;58.60;;;;;;5061148;28;20399;-80
2021/05/17 06:46:07;;;;;;;8.30;2.63;;;14.40;57.20;;;;;;5062599;28;20393;-81
2021/05/17 06:48:41;;;;;;;7.53;2.97;;;14.50;54.80;;;;;;5052108;28;20534;-80
2021/05/17 06:51:17;;;;;;;5.57;2.70;;;14.40;54.90;;;;;;5045786;28;20447;-80
2021/05/17 06:53:44;;;;;;;5.10;2.70;;;14.50;54.50;;;;;;5039297;28;20874;-78
2021/05/17 06:58:55;;;;;;;7.32;2.65;;;14.90;50.50;;;;;;5040359;28;20390;-76
2021/05/17 07:01:24;;;;;;;6.63;2.45;;;15.10;49.50;;;;;;5047522;28;20399;-79
2021/05/17 07:03:51;;;;;;;4.80;2.35;;;15.10;48.70;;;;;;5057727;28;20400;-77
2021/05/17 07:06:27;;;;;;;6.40;2.13;;;15.10;47.50;;;;;;5059662;28;20391;-79
2021/05/17 07:14:12;;;;;;;2.90;2.10;;;15.40;47.60;;;;;;5041475;28;20391;-75
2021/05/17 07:16:38;;;;;;;6.07;2.20;;;14.90;45.30;;;;;;5040894;28;20387;-76
2021/05/17 07:19:04;;;;;;;3.40;2.20;;;15.00;44.40;;;;;;5053939;28;20912;-76
2021/05/17 07:24:13;;;;;;;7.63;2.00;;;16.40;45.10;;;;;;5039529;28;20760;-76
2021/05/17 07:26:39;;;;;;;4.27;1.80;;;15.70;43.90;;;;;;5051834;28;20392;-78
2021/05/17 07:29:08;;;;;;;5.53;2.00;;;15.20;43.60;;;;;;5056478;28;20476;-79
2021/05/17 07:31:33;;;;;;;3.83;1.50;;;15.70;38.90;;;;;;5054099;28;20432;-78
2021/05/17 07:33:59;;;;;;;6.10;1.50;;;15.20;38.80;;;;;;5058394;28;20393;-80
2021/05/17 07:36:25;;;;;;;5.10;1.80;;;15.10;39.50;;;;;;5059122;28;20393;-80
2021/05/17 07:38:52;;;;;;;4.90;1.70;;;15.20;37.40;;;;;;5059821;28;20446;-79
2021/05/17 07:41:18;;;;;;;5.30;1.63;;;15.40;38.10;;;;;;5061572;28;20393;-81
2021/05/17 07:43:45;;;;;;;3.05;1.73;;;17.80;37.60;;;;;;5060605;28;20399;-77
2021/05/17 07:46:11;;;;;;;7.38;1.90;;;16.70;37.60;;;;;;5073961;28;20370;-77
2021/05/17 07:49:03;;;;;;;5.53;1.80;;;15.70;37.10;;;;;;5067026;28;20414;-81
2021/05/17 07:51:22;;;;;;;6.25;1.70;;;15.90;34.70;;;;;;5047026;28;20410;-82
2021/05/17 07:53:48;;;;;;;7.47;1.70;;;16.10;32.70;;;;;;5054391;28;20528;-81
2021/05/17 07:56:15;;;;;;;6.93;2.10;;;16.20;33.10;;;;;;5057123;28;20396;-80
2021/05/17 07:58:41;;;;;;;5.05;1.50;;;16.50;30.50;;;;;;5047817;28;20399;-80
2021/05/17 08:01:06;;;;;;;5.47;1.50;;;16.50;29.70;;;;;;5057717;28;20453;-80
2021/05/17 08:03:32;;;;;;;6.95;1.65;;;16.50;29.00;;;;;;5041019;28;20402;-78
2021/05/17 08:05:58;;;;;;;3.47;1.98;;;16.30;30.50;;;;;;5049166;28;20393;-80
2021/05/17 08:08:24;;;;;;;6.88;2.25;;;16.30;32.10;;;;;;5067195;28;20380;-75
2021/05/17 08:10:50;;;;;;;5.05;1.50;;;16.50;30.60;;;;;;5062235;28;20667;-82
2021/05/17 08:13:15;;;;;;;5.28;1.95;;;16.60;28.80;;;;;;5060848;28;20413;-77
2021/05/17 08:15:41;;;;;;;5.70;1.73;;;16.50;28.00;;;;;;5050202;28;20389;-76
2021/05/17 08:18:06;;;;;;;3.10;1.70;;;16.40;28.70;;;;;;5054242;28;20422;-78
2021/05/17 08:20:35;;;;;;;5.30;1.70;;;16.50;27.30;;;;;;5056571;28;20401;-79
2021/05/17 08:23:01;;;;;;;4.65;1.40;;;16.50;28.90;;;;;;5051040;28;20412;-78
2021/05/17 08:25:27;;;;;;;3.22;1.20;;;16.90;25.40;;;;;;5046046;28;20814;-77
2021/05/17 08:27:54;;;;;;;6.88;1.67;;;17.00;24.60;;;;;;5057616;28;20417;-79
2021/05/17 08:30:23;;;;;;;3.88;1.52;;;17.10;26.00;;;;;;5058453;28;20504;-77
2021/05/17 08:32:49;;;;;;;4.15;1.48;;;17.30;23.80;;;;;;5056264;28;20449;-76
2021/05/17 08:35:14;;;;;;;5.57;1.30;;;17.20;24.00;;;;;;5073716;28;20401;-81
2021/05/17 08:37:40;;;;;;;7.00;2.20;;;17.30;24.50;;;;;;5077047;28;20400;-81
2021/05/17 08:40:06;;;;;;;10.40;1.80;;;17.40;24.60;;;;;;5064660;28;20397;-85
2021/05/17 08:42:32;;;;;;;6.43;1.90;;;17.50;23.50;;;;;;5062271;28;20385;-84
2021/05/17 08:44:59;;;;;;;3.47;1.40;;;17.40;24.90;;;;;;5065596;28;20588;-83
2021/05/17 08:47:25;;;;;;;4.90;1.60;;;17.20;25.20;;;;;;5065314;28;20397;-84
2021/05/17 08:49:50;;;;;;;3.65;1.30;;;16.80;29.30;;;;;;5062517;28;20393;-83
2021/05/17 08:52:17;;;;;;;4.53;1.60;;;16.10;35.20;;;;;;5064529;28;20420;-83
2021/05/17 08:54:43;;;;;;;5.57;1.70;;;15.60;41.00;;;;;;5072385;28;20381;-84
2021/05/17 08:57:08;;;;;;;4.57;1.80;;;15.30;45.30;;;;;;5071742;28;20409;-86
2021/05/17 08:59:34;;;;;;;6.80;1.77;;;15.00;45.40;;;;;;5062379;28;20395;-84
2021/05/17 09:01:59;;;;;;;3.10;1.33;;;14.80;45.20;;;;;;5063608;28;20385;-84
2021/05/17 09:04:25;;;;;;;5.07;1.77;;;14.70;44.30;;;;;;5063581;28;20450;-78
2021/05/17 09:06:57;;;;;;;4.97;1.70;;;14.50;47.90;;;;;;5068631;28;20389;-81
2021/05/17 09:09:27;;;;;;;3.55;1.80;;;14.40;45.90;;;;;;5041922;28;20474;-85
2021/05/17 09:11:56;;;;;;;6.13;1.70;;;14.70;44.00;;;;;;5041019;28;20415;-82
2021/05/17 09:14:23;;;;;;;4.57;2.20;;;14.80;47.10;;;;;;5061667;28;20397;-84
2021/05/17 09:16:52;;;;;;;4.47;2.28;;;15.00;46.60;;;;;;5060712;28;20457;-84
2021/05/17 09:19:19;;;;;;;3.93;1.77;;;15.00;45.50;;;;;;5061375;28;20394;-84
2021/05/17 09:22:00;;;;;;;5.38;2.28;;;15.10;41.40;;;;;;5058995;28;20398;-83
2021/05/17 09:24:39;;;;;;;4.78;2.63;;;15.20;43.60;;;;;;5064726;28;20901;-81
2021/05/17 09:27:06;;;;;;;6.38;1.80;;;15.40;46.20;;;;;;5060935;28;20431;-84
2021/05/17 09:30:02;;;;;;;7.00;2.50;;;15.60;39.20;;;;;;5060333;28;20464;-80
2021/05/17 09:32:29;;;;;;;4.32;1.90;;;15.70;38.90;;;;;;5067387;28;20412;-81
2021/05/17 09:35:08;;;;;;;4.88;1.70;;;16.10;36.40;;;;;;5060899;28;20397;-81
2021/05/17 09:37:50;;;;;;;6.20;2.17;;;16.30;34.70;;;;;;5060861;28;20447;-84
2021/05/17 09:40:30;;;;;;;2.40;1.40;;;16.50;34.30;;;;;;5060339;28;21007;-81
2021/05/17 09:43:07;;;;;;;3.60;1.63;;;16.40;31.50;;;;;;5057455;28;20398;-83
2021/05/17 09:45:37;;;;;;;4.47;2.30;;;16.40;30.80;;;;;;5058907;28;20802;-82
2021/05/17 09:48:09;;;;;;;3.93;1.20;;;16.60;32.00;;;;;;5059829;28;20417;-82
2021/05/17 09:51:00;;;;;;;2.75;1.60;;;16.90;26.80;;;;;;5073815;28;20377;-79
2021/05/17 09:53:31;;;;;;;2.80;1.73;;;17.10;27.90;;;;;;5073456;28;20484;-78
2021/05/17 09:55:58;;;;;;;2.80;1.40;;;17.30;28.50;;;;;;5065716;28;20393;-83
2021/05/17 09:58:26;;;;;;;5.78;1.60;;;17.60;28.80;;;;;;5062008;28;20858;-82
2021/05/17 10:01:06;;;;;;;6.63;2.13;;;17.90;26.00;;;;;;5062801;28;20378;-84
2021/05/17 10:04:02;;;;;;;2.92;1.70;;;18.00;25.90;;;;;;5061693;28;20459;-83
2021/05/17 10:06:28;;;;;;;8.75;1.60;;;18.00;24.00;;;;;;5060285;28;20381;-82
2021/05/17 10:08:55;;;;;;;2.60;1.40;;;17.70;25.00;;;;;;5061842;28;20389;-83
2021/05/17 10:11:26;;;;;;;3.97;1.70;;;17.70;23.50;;;;;;5061021;28;20405;-81
2021/05/17 10:13:51;;;;;;;5.35;2.05;;;18.90;26.00;;;;;;5062868;28;20398;-83
2021/05/17 10:16:18;;;;;;;3.90;1.70;;;18.80;23.30;;;;;;5062444;28;20695;-84
2021/05/17 10:18:45;;;;;;;5.20;1.83;;;18.20;21.70;;;;;;5061541;28;20411;-83
2021/05/17 10:21:13;;;;;;;6.57;2.88;;;18.40;21.20;;;;;;5060083;28;20386;-83
2021/05/17 10:23:41;;;;;;;4.80;1.70;;;18.30;21.40;;;;;;5040347;28;20387;-83
2021/05/17 10:26:12;;;;;;;10.23;1.70;;;18.00;22.50;;;;;;5040636;28;20875;-84
2021/05/17 10:28:41;;;;;;;3.60;1.10;;;19.10;26.40;;;;;;5060142;28;20401;-80
2021/05/17 10:31:13;;;;;;;5.13;1.10;;;16.90;29.50;;;;;;5060090;28;20416;-83
2021/05/17 10:33:55;;;;;;;3.75;1.35;;;16.30;31.70;;;;;;5056675;28;20397;-84
2021/05/17 10:36:52;;;;;;;4.97;1.33;;;16.10;33.60;;;;;;5057929;28;20450;-81
2021/05/17 10:39:20;;;;;;;3.55;1.30;;;15.90;38.60;;;;;;5059351;28;20441;-80
2021/05/17 10:41:59;;;;;;;9.68;2.20;;;15.90;41.30;;;;;;5059681;28;20401;-81
2021/05/17 10:46:54;;;;;;;3.90;2.03;;;15.90;41.40;;;;;;5062631;28;20405;-79
2021/05/17 10:49:33;;;;;;;4.15;1.88;;;16.20;41.80;;;;;;5061833;28;20424;-80
2021/05/17 10:52:05;;;;;;;4.68;1.67;;;17.70;41.50;;;;;;5058441;28;20440;-85
2021/05/17 10:54:36;;;;;;;3.78;2.22;;;17.60;37.70;;;;;;5050287;28;20422;-81
2021/05/17 10:57:05;;;;;;;4.20;1.67;;;17.00;36.00;;;;;;5044459;28;20891;-82
2021/05/17 11:02:23;;;;;;;3.63;1.52;;;16.80;35.70;;;;;;5042924;28;20415;-83
2021/05/17 11:04:49;;;;;;;3.85;1.73;;;16.60;34.50;;;;;;5067349;28;20401;-77
2021/05/17 11:07:24;;;;;;;4.72;1.83;;;16.40;39.20;;;;;;5072023;28;20420;-79
2021/05/17 11:09:59;;;;;;;6.38;2.08;;;16.30;43.60;;;;;;5054848;28;20733;-82
2021/05/17 11:12:28;;;;;;;3.17;1.67;;;16.30;41.70;;;;;;5056306;28;20491;-81
2021/05/17 11:15:17;;;;;;;5.00;1.80;;;16.20;40.30;;;;;;5061728;28;20438;-81
2021/05/17 11:17:54;;;;;;;4.82;2.38;;;16.40;35.40;;;;;;5063386;28;20389;-82
2021/05/17 11:21:09;;;;;;;6.27;3.17;;;16.20;36.10;;;;;;5062354;28;20432;-82
2021/05/17 11:23:34;;;;;;;2.28;1.20;;;16.60;36.50;;;;;;5042521;28;20391;-82
2021/05/17 11:26:07;;;;;;;2.30;1.03;;;17.20;33.80;;;;;;5042759;28;20419;-82
2021/05/17 11:28:39;;;;;;;2.03;0.90;;;17.70;34.00;;;;;;5050403;28;20447;-83
2021/05/17 11:33:54;;;;;;;2.10;0.98;;;17.10;31.90;;;;;;5052520;28;20381;-75
2021/05/17 11:36:33;;;;;;;5.03;1.30;;;17.30;30.00;;;;;;5055546;28;20464;-78
2021/05/17 11:39:11;;;;;;;3.50;1.00;;;17.60;29.30;;;;;;5054707;28;20386;-77
2021/05/17 11:41:44;;;;;;;2.25;1.00;;;17.60;29.10;;;;;;5055281;28;20385;-77
2021/05/17 11:44:15;;;;;;;2.50;1.30;;;17.50;29.40;;;;;;5055135;28;20381;-76
2021/05/17 11:46:47;;;;;;;3.13;1.10;;;17.50;33.00;;;;;;5054653;28;20389;-77
2021/05/17 11:49:15;;;;;;;2.80;1.40;;;17.00;33.80;;;;;;5055406;28;20393;-76
2021/05/17 11:51:44;;;;;;;1.92;1.30;;;16.90;44.40;;;;;;5054469;28;20629;-78
2021/05/17 11:54:10;;;;;;;3.88;1.30;;;16.10;46.70;;;;;;5054756;28;20397;-77
2021/05/17 11:56:41;;;;;;;3.80;1.70;;;15.60;46.60;;;;;;5054392;28;20489;-77
2021/05/17 11:59:19;;;;;;;16.30;8.93;;;15.20;53.00;;;;;;5053331;28;20382;-77
2021/05/17 12:01:47;;;;;;;154.68;81.30;;;15.00;52.70;;;;;;5054391;28;20385;-78
2021/05/17 12:04:13;;;;;;;12.32;6.43;;;15.00;58.70;;;;;;5052870;28;20385;-77
2021/05/17 12:06:44;;;;;;;40.92;23.48;;;15.00;57.80;;;;;;5052628;28;20397;-76
2021/05/17 12:09:10;;;;;;;113.43;62.95;;;14.90;58.50;;;;;;5054138;28;20586;-76
2021/05/17 12:11:47;;;;;;;12.07;7.25;;;15.00;67.00;;;;;;5044709;28;20409;-76
2021/05/17 12:14:13;;;;;;;19.83;11.43;;;15.10;56.20;;;;;;5052301;28;20484;-75
2021/05/17 12:16:38;;;;;;;50.00;28.63;;;15.20;52.70;;;;;;5053792;28;20424;-75
2021/05/17 12:19:04;;;;;;;4.93;2.83;;;15.20;56.00;;;;;;5053108;28;20462;-74
2021/05/17 12:21:37;;;;;;;7.82;4.25;;;15.20;54.80;;;;;;5047055;28;20395;-76
2021/05/17 12:24:06;;;;;;;35.22;19.92;;;15.20;54.90;;;;;;5033732;28;20398;-75
2021/05/17 12:26:55;;;;;;;8.18;4.32;;;15.20;55.50;;;;;;5033845;28;20383;-75
2021/05/17 12:29:21;;;;;;;27.30;14.90;;;15.20;55.00;;;;;;5047953;28;20432;-75
2021/05/17 12:31:48;;;;;;;30.17;18.27;;;15.30;57.50;;;;;;5056062;28;20434;-77
2021/05/17 12:34:15;;;;;;;20.73;11.77;;;15.90;51.40;;;;;;5059127;28;20390;-83
2021/05/17 12:36:42;;;;;;;6.20;3.92;;;16.20;49.30;;;;;;5063364;28;20430;-84
2021/05/17 12:39:26;;;;;;;5.00;2.63;;;16.20;48.60;;;;;;5063645;28;20390;-84
2021/05/17 12:41:51;;;;;;;13.38;8.40;;;16.60;43.00;;;;;;5065181;28;20381;-83
2021/05/17 12:44:28;;;;;;;8.53;3.87;;;16.90;44.70;;;;;;5063462;28;20471;-82
2021/05/17 12:47:02;;;;;;;17.77;13.10;;;17.40;39.70;;;;;;5066916;28;20401;-84
2021/05/17 12:49:49;;;;;;;5.00;4.53;;;17.80;39.50;;;;;;5070648;28;20385;-83
2021/05/17 12:52:37;;;;;;;5.60;3.22;;;17.00;37.30;;;;;;5075389;28;20401;-80
2021/05/17 12:55:11;;;;;;;5.15;3.03;;;16.70;40.30;;;;;;5053618;28;20388;-80
2021/05/17 12:57:59;;;;;;;7.30;3.20;;;16.70;43.80;;;;;;5062061;28;20866;-84
2021/05/17 13:00:45;;;;;;;7.25;3.15;;;16.60;39.80;;;;;;5060725;28;20385;-84
2021/05/17 13:03:12;;;;;;;4.85;2.92;;;16.30;42.50;;;;;;5062671;28;20397;-83
2021/05/17 13:05:58;;;;;;;6.20;3.15;;;16.00;43.40;;;;;;5062329;28;20421;-82
2021/05/17 13:08:48;;;;;;;5.05;3.72;;;16.10;45.30;;;;;;5060249;28;20417;-83
2021/05/17 13:11:28;;;;;;;10.93;6.80;;;16.50;42.70;;;;;;5059446;28;20502;-84
2021/05/17 13:14:23;;;;;;;4.00;3.20;;;17.40;37.00;;;;;;5048592;28;20898;-81
2021/05/17 13:16:55;;;;;;;5.65;3.75;;;17.10;35.20;;;;;;5059644;28;20937;-84
2021/05/17 13:30:32;;;;;;;4.28;3.65;;;16.20;40.30;;;;;;5065626;28;20376;-80
2021/05/17 13:32:58;;;;;;;6.35;5.13;;;16.10;42.50;;;;;;5065843;28;20416;-83
2021/05/17 13:35:24;;;;;;;6.30;4.10;;;16.40;41.40;;;;;;5068789;28;20377;-82
2021/05/17 13:37:50;;;;;;;5.30;3.77;;;16.60;38.30;;;;;;5071969;28;20467;-82